createdAt,value
2022-10-31T00:01:15.617Z,16.50
2022-10-31T00:03:42.444Z,16.50
2022-10-31T00:06:09.568Z,16.40
2022-10-31T00:08:36.655Z,16.40
2022-10-31T00:11:03.898Z,16.40
2022-10-31T00:13:30.723Z,16.40
2022-10-31T00:15:57.511Z,16.40
2022-10-31T00:18:24.302Z,16.40
2022-10-31T00:21:00.529Z,16.30
2022-10-31T00:23:27.431Z,16.20
2022-10-31T00:25:54.343Z,16.20
2022-10-31T00:28:21.232Z,16.10
2022-10-31T00:30:50.870Z,16.10
2022-10-31T00:33:17.646Z,16.10
2022-10-31T00:35:49.899Z,16.10
2022-10-31T00:38:16.716Z,16.10
2022-10-31T00:40:43.524Z,16.00
2022-10-31T00:45:57.095Z,16.00
2022-10-31T00:48:23.962Z,16.00
2022-10-31T00:50:50.766Z,16.00
2022-10-31T00:53:17.585Z,16.00
2022-10-31T00:55:44.398Z,16.00
2022-10-31T00:58:11.275Z,16.00
2022-10-31T01:00:38.145Z,16.00
2022-10-31T01:03:05.090Z,16.00
2022-10-31T01:05:32.233Z,15.90
2022-10-31T01:08:00.501Z,15.90
2022-10-31T01:10:27.306Z,16.00
2022-10-31T01:12:54.114Z,16.00
2022-10-31T01:15:23.473Z,15.90
2022-10-31T01:17:50.766Z,15.90
2022-10-31T01:20:18.548Z,15.90
2022-10-31T01:22:45.630Z,15.90
2022-10-31T01:25:12.996Z,15.90
2022-10-31T01:27:39.846Z,15.90
2022-10-31T01:30:07.308Z,15.90
2022-10-31T01:32:34.097Z,15.90
2022-10-31T01:35:00.936Z,15.90
2022-10-31T01:37:27.743Z,15.90
2022-10-31T01:39:54.534Z,15.90
2022-10-31T01:42:23.669Z,15.90
2022-10-31T01:44:57.168Z,15.90
2022-10-31T01:47:38.995Z,15.90
2022-10-31T01:50:13.760Z,16.00
2022-10-31T01:52:48.470Z,15.90
2022-10-31T01:55:30.314Z,16.00
2022-10-31T01:58:08.950Z,16.00
2022-10-31T02:00:35.956Z,16.00
2022-10-31T02:03:03.429Z,16.00
2022-10-31T02:05:32.809Z,16.00
2022-10-31T02:08:19.592Z,16.00
2022-10-31T02:10:46.462Z,16.00
2022-10-31T02:13:14.227Z,16.00
2022-10-31T02:15:43.765Z,16.10
2022-10-31T02:18:10.800Z,16.00
2022-10-31T02:20:54.906Z,16.00
2022-10-31T02:23:47.956Z,16.00
2022-10-31T02:26:58.422Z,16.00
2022-10-31T02:29:31.090Z,16.00
2022-10-31T02:32:22.364Z,16.00
2022-10-31T02:35:05.779Z,16.00
2022-10-31T02:37:42.525Z,15.90
2022-10-31T02:40:16.769Z,16.00
2022-10-31T02:42:54.420Z,15.90
2022-10-31T02:45:35.333Z,15.90
2022-10-31T02:48:09.463Z,15.90
2022-10-31T02:50:41.729Z,15.90
2022-10-31T02:53:08.530Z,15.90
2022-10-31T02:55:35.274Z,15.90
2022-10-31T02:58:14.903Z,15.90
2022-10-31T03:00:47.020Z,15.90
2022-10-31T03:03:28.042Z,15.90
2022-10-31T03:05:57.890Z,16.00
2022-10-31T03:08:41.065Z,16.00
2022-10-31T03:11:09.874Z,16.00
2022-10-31T03:13:52.476Z,15.90
2022-10-31T03:16:30.000Z,16.00
2022-10-31T03:19:07.078Z,16.00
2022-10-31T03:22:03.372Z,15.90
2022-10-31T03:24:35.300Z,15.90
2022-10-31T03:27:04.394Z,15.90
2022-10-31T03:29:35.858Z,15.90
2022-10-31T03:32:13.234Z,15.90
2022-10-31T03:34:42.903Z,15.90
2022-10-31T03:37:14.310Z,15.90
2022-10-31T03:39:44.394Z,15.90
2022-10-31T03:42:19.554Z,15.90
2022-10-31T03:44:59.969Z,15.90
2022-10-31T03:47:27.427Z,16.00
2022-10-31T03:49:55.157Z,16.00
2022-10-31T03:52:33.192Z,16.00
2022-10-31T03:55:20.351Z,16.00
2022-10-31T03:58:22.193Z,16.00
2022-10-31T04:00:51.802Z,16.10
2022-10-31T04:03:22.174Z,16.10
2022-10-31T04:05:52.223Z,16.10
2022-10-31T04:08:22.139Z,16.10
2022-10-31T04:10:51.163Z,16.10
2022-10-31T04:13:24.168Z,16.10
2022-10-31T04:15:55.024Z,16.10
2022-10-31T04:18:24.096Z,16.10
2022-10-31T04:20:59.938Z,16.10
2022-10-31T04:23:26.982Z,16.10
2022-10-31T04:25:53.804Z,16.10
2022-10-31T04:28:20.626Z,16.10
2022-10-31T04:30:47.485Z,16.10
2022-10-31T04:33:14.306Z,16.10
2022-10-31T04:35:41.603Z,16.10
2022-10-31T04:38:08.445Z,16.10
2022-10-31T04:40:35.218Z,16.10
2022-10-31T04:43:02.405Z,16.10
2022-10-31T04:45:29.446Z,16.20
2022-10-31T04:47:56.282Z,16.20
2022-10-31T04:50:23.078Z,16.20
2022-10-31T04:52:49.942Z,16.20
2022-10-31T04:55:16.917Z,16.20
2022-10-31T04:57:49.283Z,16.20
2022-10-31T05:00:18.595Z,16.20
2022-10-31T05:02:48.971Z,16.20
2022-10-31T05:05:17.126Z,16.20
2022-10-31T05:07:45.538Z,16.20
2022-10-31T05:10:15.050Z,16.20
2022-10-31T05:12:53.894Z,16.20
2022-10-31T05:15:22.978Z,16.20
2022-10-31T05:17:50.281Z,16.30
2022-10-31T05:20:18.841Z,16.30
2022-10-31T05:22:47.758Z,16.30
2022-10-31T05:25:15.078Z,16.30
2022-10-31T05:27:43.308Z,16.30
2022-10-31T05:30:12.537Z,16.30
2022-10-31T05:32:44.403Z,16.30
2022-10-31T05:35:14.205Z,16.30
2022-10-31T05:37:41.237Z,16.30
2022-10-31T05:40:10.429Z,16.30
2022-10-31T05:42:38.888Z,16.30
2022-10-31T05:45:06.255Z,16.30
2022-10-31T05:47:33.060Z,16.30
2022-10-31T05:49:59.850Z,16.30
2022-10-31T05:52:26.651Z,16.30
2022-10-31T05:54:53.438Z,16.30
2022-10-31T05:57:20.243Z,16.30
2022-10-31T05:59:49.928Z,16.30
2022-10-31T06:02:21.438Z,16.30
2022-10-31T06:04:48.807Z,16.30
2022-10-31T06:07:15.659Z,16.40
2022-10-31T06:09:42.469Z,16.30
2022-10-31T06:12:09.303Z,16.40
2022-10-31T06:14:36.095Z,16.40
2022-10-31T06:17:02.878Z,16.40
2022-10-31T06:19:29.690Z,16.40
2022-10-31T06:21:56.480Z,16.40
2022-10-31T06:24:23.323Z,16.40
2022-10-31T06:26:50.112Z,16.40
2022-10-31T06:29:16.904Z,16.40
2022-10-31T06:31:43.695Z,16.40
2022-10-31T06:34:10.575Z,16.40
2022-10-31T06:36:37.419Z,16.40
2022-10-31T06:39:04.310Z,16.40
2022-10-31T06:41:31.085Z,16.40
2022-10-31T06:43:57.877Z,16.40
2022-10-31T06:46:24.666Z,16.40
2022-10-31T06:48:51.499Z,16.40
2022-10-31T06:51:18.293Z,16.40
2022-10-31T06:53:45.089Z,16.40
2022-10-31T06:56:11.899Z,16.40
2022-10-31T06:58:38.677Z,16.40
2022-10-31T07:01:05.593Z,16.40
2022-10-31T07:03:32.541Z,16.40
2022-10-31T07:05:59.736Z,16.40
2022-10-31T07:08:26.925Z,16.40
2022-10-31T07:10:55.518Z,16.40
2022-10-31T07:13:26.489Z,16.40
2022-10-31T07:16:00.716Z,16.40
2022-10-31T07:18:27.663Z,16.40
2022-10-31T07:20:54.829Z,16.40
2022-10-31T07:23:22.057Z,16.40
2022-10-31T07:25:48.866Z,16.50
2022-10-31T07:28:15.691Z,16.50
2022-10-31T07:30:42.473Z,16.50
2022-10-31T07:33:10.041Z,16.50
2022-10-31T07:35:36.876Z,16.50
2022-10-31T07:38:11.259Z,16.60
2022-10-31T07:40:38.062Z,16.60
2022-10-31T07:43:06.718Z,16.60
2022-10-31T07:45:38.504Z,16.60
2022-10-31T07:48:05.558Z,16.70
2022-10-31T07:50:36.817Z,16.70
2022-10-31T07:53:05.885Z,16.70
2022-10-31T07:55:33.361Z,16.70
2022-10-31T07:58:04.781Z,16.70
2022-10-31T08:00:33.640Z,16.80
2022-10-31T08:03:15.351Z,16.80
2022-10-31T08:05:43.008Z,16.80
2022-10-31T08:08:10.407Z,16.80
2022-10-31T08:10:37.934Z,16.70
2022-10-31T08:13:09.952Z,16.70
2022-10-31T08:15:40.257Z,16.70
2022-10-31T08:18:08.133Z,16.70
2022-10-31T08:20:34.982Z,16.70
2022-10-31T08:23:05.772Z,16.70
2022-10-31T08:25:38.424Z,16.70
2022-10-31T08:28:06.564Z,16.80
2022-10-31T08:30:36.457Z,16.80
2022-10-31T08:33:07.473Z,16.80
2022-10-31T08:35:34.652Z,16.80
2022-10-31T08:38:02.462Z,16.80
2022-10-31T08:40:31.282Z,16.80
2022-10-31T08:43:03.700Z,16.80
2022-10-31T08:45:32.019Z,16.80
2022-10-31T08:48:05.357Z,16.90
2022-10-31T08:50:34.202Z,16.80
2022-10-31T08:53:06.932Z,16.90
2022-10-31T08:55:37.931Z,16.80
2022-10-31T08:58:07.169Z,16.90
2022-10-31T09:00:35.789Z,16.90
2022-10-31T09:03:09.902Z,16.90
2022-10-31T09:05:37.167Z,16.90
2022-10-31T09:08:05.726Z,16.90
2022-10-31T09:10:34.148Z,17.00
2022-10-31T09:13:05.207Z,17.00
2022-10-31T09:15:32.068Z,17.00
2022-10-31T09:17:59.206Z,17.10
2022-10-31T09:20:26.300Z,17.10
2022-10-31T09:23:04.984Z,17.10
2022-10-31T09:25:33.172Z,17.20
2022-10-31T09:28:01.489Z,17.20
2022-10-31T09:30:30.568Z,17.20
2022-10-31T09:33:02.296Z,17.30
2022-10-31T09:35:29.611Z,17.30
2022-10-31T09:37:57.962Z,17.40
2022-10-31T09:40:49.184Z,17.30
2022-10-31T09:43:33.617Z,17.40
2022-10-31T09:46:22.617Z,17.40
2022-10-31T09:49:14.017Z,17.50
2022-10-31T09:51:53.071Z,17.50
2022-10-31T09:54:21.664Z,17.50
2022-10-31T09:56:48.764Z,17.50
2022-10-31T09:59:39.861Z,17.50
2022-10-31T10:02:28.921Z,17.50
2022-10-31T10:05:02.893Z,17.60
2022-10-31T10:07:56.344Z,17.60
2022-10-31T10:10:52.083Z,17.60
2022-10-31T10:13:59.239Z,17.60
2022-10-31T10:17:07.435Z,17.70
2022-10-31T10:20:11.813Z,17.70
2022-10-31T10:22:43.978Z,17.70
2022-10-31T10:25:27.780Z,17.70
2022-10-31T10:27:57.412Z,17.70
2022-10-31T10:30:28.358Z,17.70
2022-10-31T10:33:02.454Z,17.70
2022-10-31T10:35:53.537Z,17.70
2022-10-31T10:38:40.200Z,17.80
2022-10-31T10:41:14.156Z,17.80
2022-10-31T10:43:41.029Z,17.90
2022-10-31T10:46:38.693Z,17.90
2022-10-31T10:49:16.418Z,17.90
2022-10-31T10:52:07.522Z,17.90
2022-10-31T10:55:02.844Z,18.00
2022-10-31T10:57:55.831Z,18.00
2022-10-31T11:00:25.514Z,18.10
2022-10-31T11:02:53.041Z,18.10
2022-10-31T11:05:34.773Z,18.20
2022-10-31T11:08:01.931Z,18.20
2022-10-31T11:10:29.221Z,18.20
2022-10-31T11:13:04.756Z,18.30
2022-10-31T11:15:33.193Z,18.30
2022-10-31T11:18:00.443Z,18.30
2022-10-31T11:20:35.600Z,18.40
2022-10-31T11:23:20.078Z,18.40
2022-10-31T11:26:01.372Z,18.40
2022-10-31T11:28:36.069Z,18.40
2022-10-31T11:31:13.783Z,18.50
2022-10-31T11:33:53.931Z,18.50
2022-10-31T11:36:25.299Z,18.50
2022-10-31T11:38:53.469Z,18.50
2022-10-31T11:41:27.088Z,18.60
2022-10-31T11:44:01.129Z,18.60
2022-10-31T11:46:38.542Z,18.60
2022-10-31T11:49:06.305Z,18.70
2022-10-31T11:51:35.719Z,18.70
2022-10-31T11:54:04.805Z,18.70
2022-10-31T11:56:42.251Z,18.70
2022-10-31T11:59:29.523Z,18.70
2022-10-31T12:01:59.300Z,18.80
2022-10-31T12:04:47.643Z,18.80
2022-10-31T12:07:14.536Z,18.80
2022-10-31T12:09:42.237Z,18.80
2022-10-31T12:12:44.381Z,18.80
2022-10-31T12:15:37.538Z,18.90
2022-10-31T12:18:07.336Z,18.90
2022-10-31T12:20:40.054Z,18.90
2022-10-31T12:23:09.584Z,18.90
2022-10-31T12:26:20.159Z,18.90
2022-10-31T12:28:55.364Z,18.90
2022-10-31T12:31:56.782Z,19.00
2022-10-31T12:34:32.828Z,19.00
2022-10-31T12:37:03.459Z,18.90
2022-10-31T12:39:48.819Z,19.00
2022-10-31T12:42:40.316Z,19.00
2022-10-31T12:45:45.468Z,19.00
2022-10-31T12:48:40.860Z,19.10
2022-10-31T12:51:34.093Z,19.10
2022-10-31T12:54:18.343Z,19.10
2022-10-31T12:56:45.100Z,19.10
2022-10-31T12:59:46.913Z,19.10
2022-10-31T13:02:33.257Z,19.10
2022-10-31T13:05:30.474Z,19.10
2022-10-31T13:08:00.183Z,19.10
2022-10-31T13:10:36.034Z,19.20
2022-10-31T13:13:14.371Z,19.10
2022-10-31T13:15:51.746Z,19.10
2022-10-31T13:18:42.318Z,19.20
2022-10-31T13:21:24.548Z,19.20
2022-10-31T13:23:52.908Z,19.20
2022-10-31T13:26:39.940Z,19.20
2022-10-31T13:29:45.290Z,19.20
2022-10-31T13:32:12.608Z,19.30
2022-10-31T13:34:47.828Z,19.30
2022-10-31T13:37:50.965Z,19.20
2022-10-31T13:40:29.946Z,19.30
2022-10-31T13:43:12.130Z,19.30
2022-10-31T13:45:52.760Z,19.30
2022-10-31T13:48:30.204Z,19.30
2022-10-31T13:51:07.370Z,19.30
2022-10-31T13:53:43.166Z,19.30
2022-10-31T13:56:09.921Z,19.30
2022-10-31T13:58:37.215Z,19.20
2022-10-31T14:01:19.912Z,19.20
2022-10-31T14:04:07.644Z,19.30
2022-10-31T14:06:44.773Z,19.30
2022-10-31T14:09:23.178Z,19.30
2022-10-31T14:11:51.305Z,19.30
2022-10-31T14:14:20.395Z,19.30
2022-10-31T14:16:55.716Z,19.30
2022-10-31T14:19:23.352Z,19.30
2022-10-31T14:21:51.782Z,19.30
2022-10-31T14:24:24.515Z,19.30
2022-10-31T14:27:23.133Z,19.30
2022-10-31T14:29:50.744Z,19.30
2022-10-31T14:32:26.701Z,19.30
2022-10-31T14:34:56.473Z,19.30
2022-10-31T14:37:50.828Z,19.30
2022-10-31T14:40:29.615Z,19.30
2022-10-31T14:43:17.680Z,19.30
2022-10-31T14:46:14.392Z,19.40
2022-10-31T14:49:00.483Z,19.30
2022-10-31T14:51:40.488Z,19.30
2022-10-31T14:54:12.719Z,19.40
2022-10-31T14:56:54.396Z,19.30
2022-10-31T14:59:28.079Z,19.30
2022-10-31T15:02:16.643Z,19.30
2022-10-31T15:04:46.826Z,19.30
2022-10-31T15:07:25.397Z,19.30
2022-10-31T15:10:07.663Z,19.30
2022-10-31T15:12:38.660Z,19.40
2022-10-31T15:15:16.235Z,19.40
2022-10-31T15:17:47.429Z,19.40
2022-10-31T15:20:22.866Z,19.40
2022-10-31T15:22:50.483Z,19.40
2022-10-31T15:25:25.609Z,19.40
2022-10-31T15:27:53.768Z,19.40
2022-10-31T15:30:22.380Z,19.40
2022-10-31T15:32:57.378Z,19.30
2022-10-31T15:35:30.781Z,19.30
2022-10-31T15:38:00.516Z,19.30
2022-10-31T15:40:29.184Z,19.30
2022-10-31T15:43:05.021Z,19.40
2022-10-31T15:45:32.421Z,19.40
2022-10-31T15:48:12.528Z,19.30
2022-10-31T15:50:42.089Z,19.30
2022-10-31T15:53:22.212Z,19.40
2022-10-31T15:56:00.319Z,19.40
2022-10-31T15:58:29.382Z,19.40
2022-10-31T16:01:05.115Z,19.40
2022-10-31T16:03:34.583Z,19.40
2022-10-31T16:06:04.879Z,19.40
2022-10-31T16:08:31.669Z,19.40
2022-10-31T16:11:00.690Z,19.40
2022-10-31T16:13:33.423Z,19.50
2022-10-31T16:19:06.635Z,19.50
2022-10-31T16:21:37.160Z,19.50
2022-10-31T16:24:15.742Z,19.50
2022-10-31T16:26:42.991Z,19.50
2022-10-31T16:29:34.691Z,19.50
2022-10-31T16:32:01.912Z,19.50
2022-10-31T16:34:28.896Z,19.50
2022-10-31T16:36:55.724Z,19.50
2022-10-31T16:39:22.643Z,19.50
2022-10-31T16:41:53.251Z,19.50
2022-10-31T16:44:24.140Z,19.50
2022-10-31T16:47:09.819Z,19.50
2022-10-31T16:49:36.621Z,19.50
2022-10-31T16:52:03.505Z,19.50
2022-10-31T16:54:30.577Z,19.50
2022-10-31T16:56:59.715Z,19.50
2022-10-31T16:59:27.639Z,19.50
2022-10-31T17:01:56.354Z,19.50
2022-10-31T17:04:23.345Z,19.50
2022-10-31T17:06:50.230Z,19.50
2022-10-31T17:09:17.055Z,19.50
2022-10-31T17:11:49.803Z,19.50
2022-10-31T17:14:17.858Z,19.50
2022-10-31T17:16:44.692Z,19.40
2022-10-31T17:19:12.656Z,19.40
2022-10-31T17:21:40.522Z,19.40
2022-10-31T17:24:10.230Z,19.30
2022-10-31T17:26:37.044Z,19.30
2022-10-31T17:29:03.905Z,19.30
2022-10-31T17:31:33.140Z,19.20
2022-10-31T17:34:02.628Z,19.20
2022-10-31T17:36:31.631Z,19.10
2022-10-31T17:38:58.557Z,19.00
2022-10-31T17:41:25.419Z,19.00
2022-10-31T17:43:59.336Z,18.90
2022-10-31T17:46:26.563Z,18.90
2022-10-31T17:48:53.371Z,18.80
2022-10-31T17:51:20.234Z,18.80
2022-10-31T17:53:47.013Z,18.70
2022-10-31T17:56:13.895Z,18.70
2022-10-31T17:58:40.819Z,18.70
2022-10-31T18:01:11.261Z,18.70
2022-10-31T18:03:39.007Z,18.60
2022-10-31T18:06:06.519Z,18.60
2022-10-31T18:08:35.557Z,18.60
2022-10-31T18:11:28.447Z,18.50
2022-10-31T18:13:56.785Z,18.50
2022-10-31T18:16:24.055Z,18.40
2022-10-31T18:18:56.421Z,18.40
2022-10-31T18:21:23.294Z,18.40
2022-10-31T18:23:57.677Z,18.40
2022-10-31T18:26:25.735Z,18.30
2022-10-31T18:28:52.853Z,18.30
2022-10-31T18:31:20.239Z,18.30
2022-10-31T18:33:47.327Z,18.20
2022-10-31T18:36:14.252Z,18.20
2022-10-31T18:38:44.984Z,18.20
2022-10-31T18:41:13.566Z,18.20
2022-10-31T18:43:40.754Z,18.20
2022-10-31T18:46:10.513Z,18.20
2022-10-31T18:48:38.056Z,18.10
2022-10-31T18:51:06.062Z,18.10
2022-10-31T18:53:33.219Z,18.10
2022-10-31T18:56:00.950Z,18.00
2022-10-31T18:58:28.870Z,18.10
2022-10-31T19:00:56.186Z,18.10
2022-10-31T19:03:26.245Z,18.10
2022-10-31T19:05:56.578Z,18.10
2022-10-31T19:08:23.826Z,18.10
2022-10-31T19:10:50.664Z,18.10
2022-10-31T19:13:17.591Z,18.00
2022-10-31T19:15:44.488Z,18.10
2022-10-31T19:18:11.285Z,18.10
2022-10-31T19:20:39.632Z,18.10
2022-10-31T19:23:06.793Z,18.00
2022-10-31T19:25:33.651Z,18.00
2022-10-31T19:28:00.723Z,18.00
2022-10-31T19:30:27.758Z,18.00
2022-10-31T19:32:56.027Z,18.00
2022-10-31T19:35:22.825Z,18.00
2022-10-31T19:37:49.608Z,18.00
2022-10-31T19:40:16.502Z,18.00
2022-10-31T19:42:43.288Z,18.00
2022-10-31T19:45:11.069Z,18.10
2022-10-31T19:47:37.869Z,18.00
2022-10-31T19:50:05.165Z,18.00
2022-10-31T19:52:36.056Z,18.00
2022-10-31T19:55:02.975Z,18.00
2022-10-31T19:57:56.159Z,18.00
2022-10-31T20:00:16.697Z,18.00
2022-10-31T20:02:43.529Z,18.00
2022-10-31T20:05:10.328Z,18.00
2022-10-31T20:07:37.212Z,17.90
2022-10-31T20:10:04.368Z,18.00
2022-10-31T20:12:33.831Z,18.00
2022-10-31T20:15:00.633Z,17.90
2022-10-31T20:17:27.488Z,17.90
2022-10-31T20:19:54.538Z,17.90
2022-10-31T20:22:21.609Z,17.90
2022-10-31T20:24:48.399Z,18.00
2022-10-31T20:27:15.179Z,18.00
2022-10-31T20:29:42.000Z,18.00
2022-10-31T20:32:08.864Z,17.90
2022-10-31T20:34:35.737Z,17.90
2022-10-31T20:37:02.624Z,18.00
2022-10-31T20:39:29.657Z,18.00
2022-10-31T20:41:56.431Z,18.00
2022-10-31T20:44:23.402Z,18.00
2022-10-31T20:46:50.185Z,18.00
2022-10-31T20:49:17.895Z,18.00
2022-10-31T20:51:44.696Z,18.00
2022-10-31T20:54:13.269Z,18.00
2022-10-31T20:56:40.226Z,18.00
2022-10-31T20:59:09.803Z,18.00
2022-10-31T21:01:38.435Z,18.00
2022-10-31T21:04:06.385Z,18.00
2022-10-31T21:06:33.263Z,18.00
2022-10-31T21:09:00.072Z,18.00
2022-10-31T21:11:28.017Z,18.10
2022-10-31T21:13:55.244Z,18.00
2022-10-31T21:16:24.973Z,18.00
2022-10-31T21:18:52.978Z,18.10
2022-10-31T21:21:21.559Z,18.10
2022-10-31T21:23:48.681Z,18.10
2022-10-31T21:26:21.022Z,18.10
2022-10-31T21:28:49.163Z,18.10
2022-10-31T21:31:17.720Z,18.10
2022-10-31T21:33:45.552Z,18.10
2022-10-31T21:36:13.096Z,18.10
2022-10-31T21:38:40.534Z,18.10
2022-10-31T21:41:10.301Z,18.10
2022-10-31T21:43:39.552Z,18.10
2022-10-31T21:46:11.877Z,18.10
2022-10-31T21:48:41.835Z,18.10
2022-10-31T21:51:11.094Z,18.10
2022-10-31T21:53:56.863Z,18.10
2022-10-31T21:56:24.644Z,18.10
2022-10-31T21:58:52.567Z,18.10
2022-10-31T22:01:19.905Z,18.10
2022-10-31T22:03:46.833Z,18.10
2022-10-31T22:06:14.368Z,18.10
2022-10-31T22:08:41.519Z,18.10
2022-10-31T22:11:15.801Z,18.10
2022-10-31T22:13:44.828Z,18.10
2022-10-31T22:16:14.189Z,18.10
2022-10-31T22:18:42.101Z,18.10
2022-10-31T22:21:10.033Z,18.10
2022-10-31T22:23:37.267Z,18.10
2022-10-31T22:26:10.083Z,18.00
2022-10-31T22:28:36.861Z,18.10
2022-10-31T22:31:07.301Z,18.10
2022-10-31T22:33:34.401Z,18.00
2022-10-31T22:36:05.650Z,18.00
2022-10-31T22:38:40.348Z,18.00
2022-10-31T22:41:08.690Z,18.00
2022-10-31T22:43:35.943Z,18.00
2022-10-31T22:46:06.307Z,18.00
2022-10-31T22:48:37.022Z,18.00
2022-10-31T22:51:13.387Z,18.00
2022-10-31T22:53:41.023Z,18.00
2022-10-31T22:56:09.993Z,18.00
2022-10-31T22:58:37.025Z,17.90
2022-10-31T23:01:09.170Z,17.90
2022-10-31T23:03:36.797Z,17.90
2022-10-31T23:06:04.970Z,17.90
2022-10-31T23:08:34.367Z,17.80
2022-10-31T23:11:02.686Z,17.80
2022-10-31T23:13:55.539Z,17.90
2022-10-31T23:16:22.321Z,17.90
2022-10-31T23:18:50.576Z,17.90
2022-10-31T23:21:37.689Z,17.90
2022-10-31T23:24:04.732Z,17.90
2022-10-31T23:26:50.220Z,17.90
2022-10-31T23:29:17.006Z,17.80
2022-10-31T23:31:43.791Z,17.80
2022-10-31T23:34:10.676Z,17.80
2022-10-31T23:36:37.479Z,17.80
2022-10-31T23:39:04.269Z,17.70
2022-10-31T23:41:31.201Z,17.70
2022-10-31T23:43:58.099Z,17.70
2022-10-31T23:46:24.889Z,17.70
2022-10-31T23:48:53.586Z,17.70
2022-10-31T23:51:20.413Z,17.60
2022-10-31T23:53:47.311Z,17.60
2022-10-31T23:56:14.425Z,17.60
2022-10-31T23:58:41.821Z,17.50
